sensor_id;sensor_type;location;lat;lon;timestamp;P1;durP1;ratioP1;P2;durP2;ratioP2
17686;SDS011;8962;52.538;13.266;2022-11-30T00:01:07;76.20;;;38.55;;
17686;SDS011;8962;52.538;13.266;2022-11-30T00:03:36;79.90;;;41.63;;
17686;SDS011;8962;52.538;13.266;2022-11-30T00:06:04;76.28;;;39.42;;
17686;SDS011;8962;52.538;13.266;2022-11-30T00:08:35;72.55;;;39.35;;
17686;SDS011;8962;52.538;13.266;2022-11-30T00:11:08;82.68;;;41.15;;
17686;SDS011;8962;52.538;13.266;2022-11-30T00:13:40;72.45;;;39.38;;
17686;SDS011;8962;52.538;13.266;2022-11-30T00:16:07;77.53;;;41.03;;
17686;SDS011;8962;52.538;13.266;2022-11-30T00:18:36;74.18;;;39.72;;
17686;SDS011;8962;52.538;13.266;2022-11-30T00:21:04;75.65;;;40.10;;
17686;SDS011;8962;52.538;13.266;2022-11-30T00:23:33;79.60;;;41.35;;
17686;SDS011;8962;52.538;13.266;2022-11-30T00:26:01;75.68;;;39.08;;
17686;SDS011;8962;52.538;13.266;2022-11-30T00:28:30;78.63;;;40.70;;
17686;SDS011;8962;52.538;13.266;2022-11-30T00:31:01;76.45;;;40.53;;
17686;SDS011;8962;52.538;13.266;2022-11-30T00:33:33;75.32;;;39.70;;
17686;SDS011;8962;52.538;13.266;2022-11-30T00:36:05;74.75;;;40.03;;
17686;SDS011;8962;52.538;13.266;2022-11-30T00:38:34;72.82;;;39.97;;
17686;SDS011;8962;52.538;13.266;2022-11-30T00:41:01;76.45;;;38.97;;
17686;SDS011;8962;52.538;13.266;2022-11-30T00:43:32;77.47;;;40.55;;
17686;SDS011;8962;52.538;13.266;2022-11-30T00:46:00;73.50;;;39.78;;
17686;SDS011;8962;52.538;13.266;2022-11-30T00:48:28;74.60;;;40.80;;
17686;SDS011;8962;52.538;13.266;2022-11-30T00:50:56;78.47;;;40.33;;
17686;SDS011;8962;52.538;13.266;2022-11-30T00:53:23;71.82;;;38.63;;
17686;SDS011;8962;52.538;13.266;2022-11-30T00:55:51;75.38;;;40.42;;
17686;SDS011;8962;52.538;13.266;2022-11-30T00:58:20;77.03;;;40.65;;
17686;SDS011;8962;52.538;13.266;2022-11-30T01:00:48;74.30;;;39.22;;
17686;SDS011;8962;52.538;13.266;2022-11-30T01:03:17;79.35;;;40.15;;
17686;SDS011;8962;52.538;13.266;2022-11-30T01:05:44;79.97;;;41.63;;
17686;SDS011;8962;52.538;13.266;2022-11-30T01:08:12;75.20;;;40.90;;
17686;SDS011;8962;52.538;13.266;2022-11-30T01:10:39;77.15;;;40.83;;
17686;SDS011;8962;52.538;13.266;2022-11-30T01:13:09;76.35;;;40.53;;
17686;SDS011;8962;52.538;13.266;2022-11-30T01:15:38;76.18;;;39.40;;
17686;SDS011;8962;52.538;13.266;2022-11-30T01:18:06;78.25;;;41.25;;
17686;SDS011;8962;52.538;13.266;2022-11-30T01:20:36;75.25;;;40.05;;
17686;SDS011;8962;52.538;13.266;2022-11-30T01:23:05;78.45;;;40.70;;
17686;SDS011;8962;52.538;13.266;2022-11-30T01:25:33;79.57;;;41.40;;
17686;SDS011;8962;52.538;13.266;2022-11-30T01:28:03;76.75;;;39.15;;
17686;SDS011;8962;52.538;13.266;2022-11-30T01:30:30;78.53;;;39.50;;
17686;SDS011;8962;52.538;13.266;2022-11-30T01:33:00;80.35;;;41.38;;
17686;SDS011;8962;52.538;13.266;2022-11-30T01:35:28;73.13;;;39.78;;
17686;SDS011;8962;52.538;13.266;2022-11-30T01:37:58;80.45;;;41.53;;
17686;SDS011;8962;52.538;13.266;2022-11-30T01:40:25;76.55;;;40.15;;
17686;SDS011;8962;52.538;13.266;2022-11-30T01:42:52;78.55;;;41.35;;
17686;SDS011;8962;52.538;13.266;2022-11-30T01:45:19;84.35;;;42.10;;
17686;SDS011;8962;52.538;13.266;2022-11-30T01:47:47;78.13;;;40.35;;
17686;SDS011;8962;52.538;13.266;2022-11-30T01:50:19;74.60;;;40.47;;
17686;SDS011;8962;52.538;13.266;2022-11-30T01:52:52;77.70;;;40.50;;
17686;SDS011;8962;52.538;13.266;2022-11-30T01:55:25;80.60;;;41.15;;
17686;SDS011;8962;52.538;13.266;2022-11-30T01:57:57;76.80;;;41.15;;
17686;SDS011;8962;52.538;13.266;2022-11-30T02:00:31;79.30;;;41.17;;
17686;SDS011;8962;52.538;13.266;2022-11-30T02:02:59;75.82;;;40.53;;
17686;SDS011;8962;52.538;13.266;2022-11-30T02:05:33;82.15;;;42.20;;
17686;SDS011;8962;52.538;13.266;2022-11-30T02:08:03;81.50;;;42.70;;
17686;SDS011;8962;52.538;13.266;2022-11-30T02:10:34;85.30;;;44.20;;
17686;SDS011;8962;52.538;13.266;2022-11-30T02:13:11;81.65;;;42.22;;
17686;SDS011;8962;52.538;13.266;2022-11-30T02:16:05;84.22;;;42.47;;
17686;SDS011;8962;52.538;13.266;2022-11-30T02:18:46;80.10;;;42.80;;
17686;SDS011;8962;52.538;13.266;2022-11-30T02:21:22;81.88;;;42.33;;
17686;SDS011;8962;52.538;13.266;2022-11-30T02:24:06;83.18;;;43.35;;
17686;SDS011;8962;52.538;13.266;2022-11-30T02:26:55;84.53;;;42.90;;
17686;SDS011;8962;52.538;13.266;2022-11-30T02:29:33;83.53;;;44.15;;
17686;SDS011;8962;52.538;13.266;2022-11-30T02:32:08;78.00;;;41.25;;
17686;SDS011;8962;52.538;13.266;2022-11-30T02:34:42;81.22;;;42.75;;
17686;SDS011;8962;52.538;13.266;2022-11-30T02:37:13;90.80;;;43.90;;
17686;SDS011;8962;52.538;13.266;2022-11-30T02:39:42;80.10;;;41.92;;
17686;SDS011;8962;52.538;13.266;2022-11-30T02:42:09;81.50;;;42.28;;
17686;SDS011;8962;52.538;13.266;2022-11-30T02:44:40;80.00;;;41.58;;
17686;SDS011;8962;52.538;13.266;2022-11-30T02:47:19;82.10;;;42.17;;
17686;SDS011;8962;52.538;13.266;2022-11-30T02:49:50;79.18;;;40.83;;
17686;SDS011;8962;52.538;13.266;2022-11-30T02:52:22;77.65;;;40.53;;
17686;SDS011;8962;52.538;13.266;2022-11-30T02:54:57;81.53;;;40.67;;
17686;SDS011;8962;52.538;13.266;2022-11-30T02:57:26;83.57;;;41.83;;
17686;SDS011;8962;52.538;13.266;2022-11-30T03:00:05;82.80;;;41.83;;
17686;SDS011;8962;52.538;13.266;2022-11-30T03:02:34;81.20;;;42.88;;
17686;SDS011;8962;52.538;13.266;2022-11-30T03:05:02;78.40;;;41.72;;
17686;SDS011;8962;52.538;13.266;2022-11-30T03:07:31;83.20;;;42.53;;
17686;SDS011;8962;52.538;13.266;2022-11-30T03:09:59;76.88;;;40.42;;
17686;SDS011;8962;52.538;13.266;2022-11-30T03:12:28;79.35;;;41.75;;
17686;SDS011;8962;52.538;13.266;2022-11-30T03:14:55;83.05;;;41.70;;
17686;SDS011;8962;52.538;13.266;2022-11-30T03:17:23;78.32;;;41.25;;
17686;SDS011;8962;52.538;13.266;2022-11-30T03:19:53;77.78;;;40.85;;
17686;SDS011;8962;52.538;13.266;2022-11-30T03:22:21;82.07;;;40.67;;
17686;SDS011;8962;52.538;13.266;2022-11-30T03:24:48;77.60;;;40.60;;
17686;SDS011;8962;52.538;13.266;2022-11-30T03:27:16;77.63;;;41.28;;
17686;SDS011;8962;52.538;13.266;2022-11-30T03:29:44;81.75;;;41.78;;
17686;SDS011;8962;52.538;13.266;2022-11-30T03:32:11;81.10;;;42.88;;
17686;SDS011;8962;52.538;13.266;2022-11-30T03:34:45;74.65;;;40.88;;
17686;SDS011;8962;52.538;13.266;2022-11-30T03:37:14;79.07;;;42.53;;
17686;SDS011;8962;52.538;13.266;2022-11-30T03:39:41;81.05;;;41.78;;
17686;SDS011;8962;52.538;13.266;2022-11-30T03:42:09;75.40;;;39.75;;
17686;SDS011;8962;52.538;13.266;2022-11-30T03:44:36;85.82;;;40.80;;
17686;SDS011;8962;52.538;13.266;2022-11-30T03:47:04;75.57;;;40.03;;
17686;SDS011;8962;52.538;13.266;2022-11-30T03:49:32;76.72;;;40.70;;
17686;SDS011;8962;52.538;13.266;2022-11-30T03:52:01;81.32;;;40.90;;
17686;SDS011;8962;52.538;13.266;2022-11-30T03:54:29;76.82;;;40.97;;
17686;SDS011;8962;52.538;13.266;2022-11-30T03:56:56;79.90;;;40.88;;
17686;SDS011;8962;52.538;13.266;2022-11-30T03:59:23;74.80;;;39.58;;
17686;SDS011;8962;52.538;13.266;2022-11-30T04:01:50;78.13;;;40.88;;
17686;SDS011;8962;52.538;13.266;2022-11-30T04:04:17;79.57;;;40.67;;
17686;SDS011;8962;52.538;13.266;2022-11-30T04:06:46;79.35;;;41.60;;
17686;SDS011;8962;52.538;13.266;2022-11-30T04:09:15;78.93;;;41.60;;
17686;SDS011;8962;52.538;13.266;2022-11-30T04:11:43;81.72;;;42.75;;
17686;SDS011;8962;52.538;13.266;2022-11-30T04:14:11;80.18;;;41.55;;
17686;SDS011;8962;52.538;13.266;2022-11-30T04:16:38;82.65;;;41.40;;
17686;SDS011;8962;52.538;13.266;2022-11-30T04:19:06;78.88;;;40.75;;
17686;SDS011;8962;52.538;13.266;2022-11-30T04:21:33;78.05;;;40.35;;
17686;SDS011;8962;52.538;13.266;2022-11-30T04:24:01;78.05;;;42.35;;
17686;SDS011;8962;52.538;13.266;2022-11-30T04:26:30;75.10;;;40.47;;
17686;SDS011;8962;52.538;13.266;2022-11-30T04:28:57;77.30;;;39.78;;
17686;SDS011;8962;52.538;13.266;2022-11-30T04:31:26;77.55;;;40.58;;
17686;SDS011;8962;52.538;13.266;2022-11-30T04:33:53;75.63;;;39.65;;
17686;SDS011;8962;52.538;13.266;2022-11-30T04:36:21;82.20;;;41.05;;
17686;SDS011;8962;52.538;13.266;2022-11-30T04:38:50;77.95;;;40.40;;
17686;SDS011;8962;52.538;13.266;2022-11-30T04:41:18;80.78;;;40.97;;
17686;SDS011;8962;52.538;13.266;2022-11-30T04:43:46;80.03;;;41.83;;
17686;SDS011;8962;52.538;13.266;2022-11-30T04:46:15;77.40;;;39.95;;
17686;SDS011;8962;52.538;13.266;2022-11-30T04:48:43;79.53;;;40.92;;
17686;SDS011;8962;52.538;13.266;2022-11-30T04:51:10;78.80;;;41.70;;
17686;SDS011;8962;52.538;13.266;2022-11-30T04:53:38;75.68;;;40.58;;
17686;SDS011;8962;52.538;13.266;2022-11-30T04:56:05;76.35;;;41.85;;
17686;SDS011;8962;52.538;13.266;2022-11-30T04:58:34;81.45;;;41.00;;
17686;SDS011;8962;52.538;13.266;2022-11-30T05:01:03;77.70;;;42.00;;
17686;SDS011;8962;52.538;13.266;2022-11-30T05:03:30;78.60;;;41.05;;
17686;SDS011;8962;52.538;13.266;2022-11-30T05:05:58;79.30;;;41.08;;
17686;SDS011;8962;52.538;13.266;2022-11-30T05:08:27;81.15;;;42.47;;
17686;SDS011;8962;52.538;13.266;2022-11-30T05:10:55;85.13;;;43.55;;
17686;SDS011;8962;52.538;13.266;2022-11-30T05:13:22;80.85;;;42.33;;
17686;SDS011;8962;52.538;13.266;2022-11-30T05:15:50;84.47;;;42.30;;
17686;SDS011;8962;52.538;13.266;2022-11-30T05:18:22;76.93;;;39.85;;
17686;SDS011;8962;52.538;13.266;2022-11-30T05:20:50;80.53;;;41.72;;
17686;SDS011;8962;52.538;13.266;2022-11-30T05:23:18;78.88;;;41.30;;
17686;SDS011;8962;52.538;13.266;2022-11-30T05:25:46;79.47;;;42.80;;
17686;SDS011;8962;52.538;13.266;2022-11-30T05:28:14;79.50;;;41.38;;
17686;SDS011;8962;52.538;13.266;2022-11-30T05:30:42;84.30;;;40.33;;
17686;SDS011;8962;52.538;13.266;2022-11-30T05:33:09;79.63;;;41.70;;
17686;SDS011;8962;52.538;13.266;2022-11-30T05:35:38;82.28;;;41.15;;
17686;SDS011;8962;52.538;13.266;2022-11-30T05:38:07;77.63;;;40.08;;
17686;SDS011;8962;52.538;13.266;2022-11-30T05:40:34;78.25;;;40.75;;
17686;SDS011;8962;52.538;13.266;2022-11-30T05:43:02;79.93;;;41.20;;
17686;SDS011;8962;52.538;13.266;2022-11-30T05:45:30;77.07;;;40.33;;
17686;SDS011;8962;52.538;13.266;2022-11-30T05:47:57;75.80;;;39.67;;
17686;SDS011;8962;52.538;13.266;2022-11-30T05:50:24;77.70;;;40.95;;
17686;SDS011;8962;52.538;13.266;2022-11-30T05:52:53;87.25;;;40.85;;
17686;SDS011;8962;52.538;13.266;2022-11-30T05:55:21;76.88;;;40.65;;
17686;SDS011;8962;52.538;13.266;2022-11-30T05:57:49;76.50;;;41.53;;
17686;SDS011;8962;52.538;13.266;2022-11-30T06:00:17;80.90;;;40.28;;
17686;SDS011;8962;52.538;13.266;2022-11-30T06:02:45;80.72;;;40.78;;
17686;SDS011;8962;52.538;13.266;2022-11-30T06:05:12;73.72;;;39.72;;
17686;SDS011;8962;52.538;13.266;2022-11-30T06:07:41;80.15;;;39.55;;
17686;SDS011;8962;52.538;13.266;2022-11-30T06:10:11;80.25;;;40.53;;
17686;SDS011;8962;52.538;13.266;2022-11-30T06:12:38;76.55;;;39.75;;
17686;SDS011;8962;52.538;13.266;2022-11-30T06:15:06;82.43;;;41.58;;
17686;SDS011;8962;52.538;13.266;2022-11-30T06:17:35;72.78;;;39.65;;
17686;SDS011;8962;52.538;13.266;2022-11-30T06:20:03;82.25;;;41.42;;
17686;SDS011;8962;52.538;13.266;2022-11-30T06:22:32;74.07;;;40.15;;
17686;SDS011;8962;52.538;13.266;2022-11-30T06:25:00;76.00;;;40.20;;
17686;SDS011;8962;52.538;13.266;2022-11-30T06:27:32;73.35;;;40.10;;
17686;SDS011;8962;52.538;13.266;2022-11-30T06:30:02;76.30;;;40.15;;
17686;SDS011;8962;52.538;13.266;2022-11-30T06:32:29;74.43;;;39.80;;
17686;SDS011;8962;52.538;13.266;2022-11-30T06:34:56;78.10;;;41.80;;
17686;SDS011;8962;52.538;13.266;2022-11-30T06:37:25;77.97;;;40.85;;
17686;SDS011;8962;52.538;13.266;2022-11-30T06:39:53;74.15;;;39.63;;
17686;SDS011;8962;52.538;13.266;2022-11-30T06:42:21;75.63;;;40.10;;
17686;SDS011;8962;52.538;13.266;2022-11-30T06:44:50;73.53;;;39.53;;
17686;SDS011;8962;52.538;13.266;2022-11-30T06:47:19;75.30;;;39.72;;
17686;SDS011;8962;52.538;13.266;2022-11-30T06:49:46;79.15;;;39.63;;
17686;SDS011;8962;52.538;13.266;2022-11-30T06:52:14;75.43;;;39.70;;
17686;SDS011;8962;52.538;13.266;2022-11-30T06:54:42;77.10;;;40.17;;
17686;SDS011;8962;52.538;13.266;2022-11-30T06:57:09;72.25;;;39.42;;
17686;SDS011;8962;52.538;13.266;2022-11-30T06:59:38;82.30;;;40.47;;
17686;SDS011;8962;52.538;13.266;2022-11-30T07:02:09;71.97;;;38.03;;
17686;SDS011;8962;52.538;13.266;2022-11-30T07:04:37;76.55;;;39.03;;
17686;SDS011;8962;52.538;13.266;2022-11-30T07:07:04;74.10;;;37.95;;
17686;SDS011;8962;52.538;13.266;2022-11-30T07:09:32;73.90;;;38.80;;
17686;SDS011;8962;52.538;13.266;2022-11-30T07:12:00;72.43;;;38.72;;
17686;SDS011;8962;52.538;13.266;2022-11-30T07:14:28;78.30;;;40.20;;
17686;SDS011;8962;52.538;13.266;2022-11-30T07:16:55;74.68;;;38.22;;
17686;SDS011;8962;52.538;13.266;2022-11-30T07:19:25;72.65;;;38.45;;
17686;SDS011;8962;52.538;13.266;2022-11-30T07:21:54;76.60;;;39.53;;
17686;SDS011;8962;52.538;13.266;2022-11-30T07:24:21;77.22;;;38.78;;
17686;SDS011;8962;52.538;13.266;2022-11-30T07:27:06;71.13;;;39.17;;
17686;SDS011;8962;52.538;13.266;2022-11-30T07:29:34;74.13;;;38.08;;
17686;SDS011;8962;52.538;13.266;2022-11-30T07:32:04;65.38;;;37.10;;
17686;SDS011;8962;52.538;13.266;2022-11-30T07:34:33;72.15;;;37.50;;
17686;SDS011;8962;52.538;13.266;2022-11-30T07:37:00;75.38;;;37.28;;
17686;SDS011;8962;52.538;13.266;2022-11-30T07:39:28;71.45;;;39.15;;
17686;SDS011;8962;52.538;13.266;2022-11-30T07:41:55;69.75;;;36.92;;
17686;SDS011;8962;52.538;13.266;2022-11-30T07:44:24;67.70;;;36.63;;
17686;SDS011;8962;52.538;13.266;2022-11-30T07:46:55;68.47;;;36.40;;
17686;SDS011;8962;52.538;13.266;2022-11-30T07:49:22;74.53;;;39.00;;
17686;SDS011;8962;52.538;13.266;2022-11-30T07:51:50;68.22;;;36.75;;
17686;SDS011;8962;52.538;13.266;2022-11-30T07:54:19;71.07;;;36.70;;
17686;SDS011;8962;52.538;13.266;2022-11-30T07:56:47;69.95;;;36.97;;
17686;SDS011;8962;52.538;13.266;2022-11-30T07:59:14;71.35;;;37.30;;
17686;SDS011;8962;52.538;13.266;2022-11-30T08:01:42;67.93;;;37.45;;
17686;SDS011;8962;52.538;13.266;2022-11-30T08:04:09;70.68;;;36.75;;
17686;SDS011;8962;52.538;13.266;2022-11-30T08:06:38;69.07;;;36.75;;
17686;SDS011;8962;52.538;13.266;2022-11-30T08:09:09;66.22;;;35.67;;
17686;SDS011;8962;52.538;13.266;2022-11-30T08:11:38;63.53;;;35.33;;
17686;SDS011;8962;52.538;13.266;2022-11-30T08:14:05;65.53;;;35.40;;
17686;SDS011;8962;52.538;13.266;2022-11-30T08:16:34;65.32;;;36.63;;
17686;SDS011;8962;52.538;13.266;2022-11-30T08:19:04;66.30;;;37.65;;
17686;SDS011;8962;52.538;13.266;2022-11-30T08:21:32;72.25;;;37.47;;
17686;SDS011;8962;52.538;13.266;2022-11-30T08:24:00;66.03;;;35.60;;
17686;SDS011;8962;52.538;13.266;2022-11-30T08:26:29;66.25;;;35.85;;
17686;SDS011;8962;52.538;13.266;2022-11-30T08:28:58;67.95;;;35.70;;
17686;SDS011;8962;52.538;13.266;2022-11-30T08:31:26;73.05;;;37.83;;
17686;SDS011;8962;52.538;13.266;2022-11-30T08:33:56;67.32;;;36.25;;
17686;SDS011;8962;52.538;13.266;2022-11-30T08:36:25;68.13;;;36.47;;
17686;SDS011;8962;52.538;13.266;2022-11-30T08:38:53;68.10;;;35.90;;
17686;SDS011;8962;52.538;13.266;2022-11-30T08:41:23;69.15;;;36.88;;
17686;SDS011;8962;52.538;13.266;2022-11-30T08:43:54;70.50;;;36.55;;
17686;SDS011;8962;52.538;13.266;2022-11-30T08:46:22;63.75;;;34.92;;
17686;SDS011;8962;52.538;13.266;2022-11-30T08:48:50;65.82;;;34.42;;
17686;SDS011;8962;52.538;13.266;2022-11-30T08:51:18;63.97;;;35.05;;
17686;SDS011;8962;52.538;13.266;2022-11-30T08:53:46;67.60;;;36.45;;
17686;SDS011;8962;52.538;13.266;2022-11-30T08:56:15;69.63;;;36.78;;
17686;SDS011;8962;52.538;13.266;2022-11-30T08:58:45;66.43;;;34.80;;
17686;SDS011;8962;52.538;13.266;2022-11-30T09:01:15;66.40;;;35.28;;
17686;SDS011;8962;52.538;13.266;2022-11-30T09:03:43;72.57;;;36.85;;
17686;SDS011;8962;52.538;13.266;2022-11-30T09:06:12;68.10;;;35.15;;
17686;SDS011;8962;52.538;13.266;2022-11-30T09:08:41;73.55;;;36.80;;
17686;SDS011;8962;52.538;13.266;2022-11-30T09:11:10;65.45;;;34.92;;
17686;SDS011;8962;52.538;13.266;2022-11-30T09:13:39;65.35;;;36.70;;
17686;SDS011;8962;52.538;13.266;2022-11-30T09:16:07;66.72;;;36.42;;
17686;SDS011;8962;52.538;13.266;2022-11-30T09:18:36;63.80;;;36.15;;
17686;SDS011;8962;52.538;13.266;2022-11-30T09:21:09;65.57;;;35.45;;
17686;SDS011;8962;52.538;13.266;2022-11-30T09:23:38;65.47;;;35.72;;
17686;SDS011;8962;52.538;13.266;2022-11-30T09:26:08;67.78;;;36.80;;
17686;SDS011;8962;52.538;13.266;2022-11-30T09:28:37;64.63;;;34.45;;
17686;SDS011;8962;52.538;13.266;2022-11-30T09:31:07;66.32;;;35.65;;
17686;SDS011;8962;52.538;13.266;2022-11-30T09:33:38;65.45;;;35.17;;
17686;SDS011;8962;52.538;13.266;2022-11-30T09:36:07;66.82;;;36.78;;
17686;SDS011;8962;52.538;13.266;2022-11-30T09:38:36;68.95;;;35.80;;
17686;SDS011;8962;52.538;13.266;2022-11-30T09:41:12;65.70;;;35.28;;
17686;SDS011;8962;52.538;13.266;2022-11-30T09:43:58;63.88;;;35.97;;
17686;SDS011;8962;52.538;13.266;2022-11-30T09:46:35;68.50;;;36.75;;
17686;SDS011;8962;52.538;13.266;2022-11-30T09:49:08;65.82;;;35.35;;
17686;SDS011;8962;52.538;13.266;2022-11-30T09:51:42;63.78;;;34.75;;
17686;SDS011;8962;52.538;13.266;2022-11-30T09:54:11;70.35;;;35.20;;
17686;SDS011;8962;52.538;13.266;2022-11-30T09:56:42;60.65;;;34.05;;
17686;SDS011;8962;52.538;13.266;2022-11-30T09:59:13;65.07;;;35.13;;
17686;SDS011;8962;52.538;13.266;2022-11-30T10:01:44;62.72;;;34.85;;
17686;SDS011;8962;52.538;13.266;2022-11-30T10:04:21;57.83;;;34.17;;
17686;SDS011;8962;52.538;13.266;2022-11-30T10:06:53;60.78;;;32.55;;
17686;SDS011;8962;52.538;13.266;2022-11-30T10:09:37;62.85;;;34.42;;
17686;SDS011;8962;52.538;13.266;2022-11-30T10:12:13;61.28;;;34.33;;
17686;SDS011;8962;52.538;13.266;2022-11-30T10:17:16;66.90;;;33.33;;
17686;SDS011;8962;52.538;13.266;2022-11-30T10:19:55;64.63;;;33.83;;
17686;SDS011;8962;52.538;13.266;2022-11-30T10:22:34;61.80;;;33.83;;
17686;SDS011;8962;52.538;13.266;2022-11-30T10:25:15;62.20;;;33.30;;
17686;SDS011;8962;52.538;13.266;2022-11-30T10:27:49;62.08;;;33.85;;
17686;SDS011;8962;52.538;13.266;2022-11-30T10:30:18;63.85;;;33.75;;
17686;SDS011;8962;52.538;13.266;2022-11-30T10:32:48;63.60;;;33.90;;
17686;SDS011;8962;52.538;13.266;2022-11-30T10:35:33;64.13;;;34.45;;
17686;SDS011;8962;52.538;13.266;2022-11-30T10:38:09;62.53;;;33.55;;
17686;SDS011;8962;52.538;13.266;2022-11-30T10:43:28;58.42;;;32.53;;
17686;SDS011;8962;52.538;13.266;2022-11-30T10:45:58;62.78;;;33.25;;
17686;SDS011;8962;52.538;13.266;2022-11-30T10:48:28;61.05;;;34.55;;
17686;SDS011;8962;52.538;13.266;2022-11-30T10:51:05;59.72;;;34.72;;
17686;SDS011;8962;52.538;13.266;2022-11-30T10:53:35;60.22;;;33.45;;
17686;SDS011;8962;52.538;13.266;2022-11-30T10:56:05;56.75;;;34.47;;
17686;SDS011;8962;52.538;13.266;2022-11-30T10:58:38;67.90;;;35.63;;
17686;SDS011;8962;52.538;13.266;2022-11-30T11:01:27;67.15;;;35.42;;
17686;SDS011;8962;52.538;13.266;2022-11-30T11:04:05;66.85;;;36.47;;
17686;SDS011;8962;52.538;13.266;2022-11-30T11:06:37;69.80;;;35.97;;
17686;SDS011;8962;52.538;13.266;2022-11-30T11:09:23;61.70;;;35.55;;
17686;SDS011;8962;52.538;13.266;2022-11-30T11:12:03;59.75;;;34.63;;
17686;SDS011;8962;52.538;13.266;2022-11-30T11:14:31;62.40;;;34.83;;
17686;SDS011;8962;52.538;13.266;2022-11-30T11:17:02;69.50;;;36.40;;
17686;SDS011;8962;52.538;13.266;2022-11-30T11:19:32;61.42;;;35.20;;
17686;SDS011;8962;52.538;13.266;2022-11-30T11:22:04;67.07;;;36.67;;
17686;SDS011;8962;52.538;13.266;2022-11-30T11:24:40;63.05;;;35.33;;
17686;SDS011;8962;52.538;13.266;2022-11-30T11:27:10;60.15;;;35.33;;
17686;SDS011;8962;52.538;13.266;2022-11-30T11:29:52;67.13;;;36.30;;
17686;SDS011;8962;52.538;13.266;2022-11-30T11:32:27;70.15;;;37.28;;
17686;SDS011;8962;52.538;13.266;2022-11-30T11:34:56;65.55;;;36.58;;
17686;SDS011;8962;52.538;13.266;2022-11-30T11:37:26;67.90;;;37.50;;
17686;SDS011;8962;52.538;13.266;2022-11-30T11:39:59;62.00;;;37.08;;
17686;SDS011;8962;52.538;13.266;2022-11-30T11:42:33;65.78;;;37.33;;
17686;SDS011;8962;52.538;13.266;2022-11-30T11:45:13;71.82;;;38.28;;
17686;SDS011;8962;52.538;13.266;2022-11-30T11:47:44;69.22;;;37.42;;
17686;SDS011;8962;52.538;13.266;2022-11-30T11:50:20;68.72;;;39.60;;
17686;SDS011;8962;52.538;13.266;2022-11-30T11:53:10;79.28;;;38.85;;
17686;SDS011;8962;52.538;13.266;2022-11-30T11:55:47;73.15;;;39.95;;
17686;SDS011;8962;52.538;13.266;2022-11-30T11:58:24;72.38;;;40.53;;
17686;SDS011;8962;52.538;13.266;2022-11-30T12:01:00;72.45;;;38.92;;
17686;SDS011;8962;52.538;13.266;2022-11-30T12:03:34;65.25;;;38.10;;
17686;SDS011;8962;52.538;13.266;2022-11-30T12:06:08;72.63;;;39.95;;
17686;SDS011;8962;52.538;13.266;2022-11-30T12:08:43;82.75;;;43.78;;
17686;SDS011;8962;52.538;13.266;2022-11-30T12:11:17;73.93;;;39.92;;
17686;SDS011;8962;52.538;13.266;2022-11-30T12:13:46;71.28;;;39.72;;
17686;SDS011;8962;52.538;13.266;2022-11-30T12:16:19;74.13;;;39.67;;
17686;SDS011;8962;52.538;13.266;2022-11-30T12:18:58;71.88;;;40.17;;
17686;SDS011;8962;52.538;13.266;2022-11-30T12:21:33;73.35;;;41.22;;
17686;SDS011;8962;52.538;13.266;2022-11-30T12:27:21;83.22;;;43.75;;
17686;SDS011;8962;52.538;13.266;2022-11-30T12:30:02;80.57;;;44.35;;
17686;SDS011;8962;52.538;13.266;2022-11-30T12:32:41;78.25;;;44.15;;
17686;SDS011;8962;52.538;13.266;2022-11-30T12:35:27;78.78;;;43.38;;
17686;SDS011;8962;52.538;13.266;2022-11-30T12:38:03;78.57;;;43.95;;
17686;SDS011;8962;52.538;13.266;2022-11-30T12:40:44;78.82;;;44.03;;
17686;SDS011;8962;52.538;13.266;2022-11-30T12:43:22;75.85;;;41.75;;
17686;SDS011;8962;52.538;13.266;2022-11-30T12:46:02;73.45;;;41.03;;
17686;SDS011;8962;52.538;13.266;2022-11-30T12:48:39;77.30;;;41.97;;
17686;SDS011;8962;52.538;13.266;2022-11-30T12:51:15;82.88;;;43.40;;
17686;SDS011;8962;52.538;13.266;2022-11-30T12:53:52;81.28;;;44.47;;
17686;SDS011;8962;52.538;13.266;2022-11-30T12:56:33;80.03;;;42.63;;
17686;SDS011;8962;52.538;13.266;2022-11-30T12:59:12;78.00;;;43.33;;
17686;SDS011;8962;52.538;13.266;2022-11-30T13:01:59;81.82;;;43.72;;
17686;SDS011;8962;52.538;13.266;2022-11-30T13:04:45;79.55;;;43.95;;
17686;SDS011;8962;52.538;13.266;2022-11-30T13:07:21;84.78;;;45.38;;
17686;SDS011;8962;52.538;13.266;2022-11-30T13:09:54;84.60;;;46.13;;
17686;SDS011;8962;52.538;13.266;2022-11-30T13:12:28;83.25;;;46.70;;
17686;SDS011;8962;52.538;13.266;2022-11-30T13:15:00;89.60;;;47.55;;
17686;SDS011;8962;52.538;13.266;2022-11-30T13:17:30;84.25;;;45.47;;
17686;SDS011;8962;52.538;13.266;2022-11-30T13:19:59;87.55;;;47.22;;
17686;SDS011;8962;52.538;13.266;2022-11-30T13:22:36;84.25;;;45.13;;
17686;SDS011;8962;52.538;13.266;2022-11-30T13:25:15;86.10;;;47.08;;
17686;SDS011;8962;52.538;13.266;2022-11-30T13:27:55;94.22;;;48.67;;
17686;SDS011;8962;52.538;13.266;2022-11-30T13:30:32;88.28;;;46.92;;
17686;SDS011;8962;52.538;13.266;2022-11-30T13:36:32;98.45;;;49.67;;
17686;SDS011;8962;52.538;13.266;2022-11-30T13:39:09;95.38;;;50.22;;
17686;SDS011;8962;52.538;13.266;2022-11-30T13:41:47;101.10;;;49.40;;
17686;SDS011;8962;52.538;13.266;2022-11-30T13:44:22;99.85;;;52.17;;
17686;SDS011;8962;52.538;13.266;2022-11-30T13:46:50;94.60;;;50.13;;
17686;SDS011;8962;52.538;13.266;2022-11-30T13:49:19;99.35;;;51.22;;
17686;SDS011;8962;52.538;13.266;2022-11-30T13:51:48;95.88;;;50.35;;
17686;SDS011;8962;52.538;13.266;2022-11-30T13:57:08;96.45;;;49.85;;
17686;SDS011;8962;52.538;13.266;2022-11-30T14:06:03;98.32;;;48.20;;
17686;SDS011;8962;52.538;13.266;2022-11-30T14:08:57;96.28;;;48.78;;
17686;SDS011;8962;52.538;13.266;2022-11-30T14:17:15;100.05;;;49.75;;
17686;SDS011;8962;52.538;13.266;2022-11-30T14:19:51;105.88;;;50.88;;
17686;SDS011;8962;52.538;13.266;2022-11-30T14:22:22;99.18;;;49.08;;
17686;SDS011;8962;52.538;13.266;2022-11-30T14:24:51;99.93;;;48.35;;
17686;SDS011;8962;52.538;13.266;2022-11-30T14:27:21;96.28;;;46.30;;
17686;SDS011;8962;52.538;13.266;2022-11-30T14:29:51;98.50;;;47.50;;
17686;SDS011;8962;52.538;13.266;2022-11-30T14:32:27;95.90;;;47.88;;
17686;SDS011;8962;52.538;13.266;2022-11-30T14:35:04;96.75;;;46.63;;
17686;SDS011;8962;52.538;13.266;2022-11-30T14:37:38;95.07;;;47.17;;
17686;SDS011;8962;52.538;13.266;2022-11-30T14:40:12;99.75;;;46.80;;
17686;SDS011;8962;52.538;13.266;2022-11-30T14:42:45;98.30;;;47.45;;
17686;SDS011;8962;52.538;13.266;2022-11-30T14:45:17;105.28;;;47.53;;
17686;SDS011;8962;52.538;13.266;2022-11-30T14:47:49;102.78;;;47.75;;
17686;SDS011;8962;52.538;13.266;2022-11-30T14:50:20;106.35;;;48.15;;
17686;SDS011;8962;52.538;13.266;2022-11-30T14:52:54;110.93;;;50.13;;
17686;SDS011;8962;52.538;13.266;2022-11-30T14:55:34;103.07;;;47.20;;
17686;SDS011;8962;52.538;13.266;2022-11-30T14:58:11;103.53;;;47.22;;
17686;SDS011;8962;52.538;13.266;2022-11-30T15:00:45;104.05;;;47.40;;
17686;SDS011;8962;52.538;13.266;2022-11-30T15:03:18;105.28;;;46.92;;
17686;SDS011;8962;52.538;13.266;2022-11-30T15:05:52;113.35;;;48.38;;
17686;SDS011;8962;52.538;13.266;2022-11-30T15:08:21;109.88;;;48.17;;
17686;SDS011;8962;52.538;13.266;2022-11-30T15:10:51;119.20;;;47.90;;